createdAt,value
2024-05-09T00:00:46.675Z,15.11
2024-05-09T00:03:34.759Z,15.11
2024-05-09T00:06:02.467Z,15.08
2024-05-09T00:08:30.481Z,15.09
2024-05-09T00:10:58.120Z,15.08
2024-05-09T00:13:26.082Z,15.06
2024-05-09T00:15:53.572Z,15.08
2024-05-09T00:18:21.583Z,15.07
2024-05-09T00:20:49.261Z,14.92
2024-05-09T00:23:17.176Z,14.96
2024-05-09T00:25:45.679Z,14.94
2024-05-09T00:28:14.643Z,14.94
2024-05-09T00:30:42.126Z,14.94
2024-05-09T00:33:11.055Z,14.94
2024-05-09T00:35:39.907Z,14.93
2024-05-09T00:38:08.367Z,14.90
2024-05-09T00:40:42.009Z,14.90
2024-05-09T00:43:12.987Z,14.89
2024-05-09T00:45:41.712Z,14.87
2024-05-09T00:48:14.228Z,14.86
2024-05-09T00:50:45.541Z,14.86
2024-05-09T00:53:15.982Z,14.88
2024-05-09T00:55:44.533Z,14.86
2024-05-09T00:58:16.378Z,14.83
2024-05-09T01:00:44.529Z,14.83
2024-05-09T01:03:14.067Z,14.83
2024-05-09T01:05:45.285Z,14.78
2024-05-09T01:08:13.635Z,14.82
2024-05-09T01:10:44.082Z,14.82
2024-05-09T01:13:14.081Z,14.80
2024-05-09T01:15:42.247Z,14.77
2024-05-09T01:18:12.765Z,14.77
2024-05-09T01:20:43.929Z,14.76
2024-05-09T01:23:16.048Z,14.78
2024-05-09T01:25:46.310Z,14.75
2024-05-09T01:28:15.230Z,14.69
2024-05-09T01:30:42.819Z,14.69
2024-05-09T01:33:14.051Z,14.68
2024-05-09T01:35:43.566Z,14.68
2024-05-09T01:38:17.435Z,14.75
2024-05-09T01:40:45.500Z,14.72
2024-05-09T01:43:18.841Z,14.74
2024-05-09T01:45:46.357Z,14.73
2024-05-09T01:48:14.318Z,14.73
2024-05-09T01:50:43.156Z,14.75
2024-05-09T01:53:14.492Z,14.71
2024-05-09T01:55:43.217Z,14.71
2024-05-09T01:58:14.272Z,14.70
2024-05-09T02:00:43.299Z,14.69
2024-05-09T02:03:15.751Z,14.69
2024-05-09T02:05:46.908Z,14.67
2024-05-09T02:08:20.194Z,14.70
2024-05-09T02:10:51.645Z,14.64
2024-05-09T02:13:19.872Z,14.63
2024-05-09T02:15:47.449Z,14.68
2024-05-09T02:18:15.486Z,14.58
2024-05-09T02:20:43.772Z,14.54
2024-05-09T02:23:12.704Z,14.56
2024-05-09T02:25:41.667Z,14.48
2024-05-09T02:28:09.623Z,14.44
2024-05-09T02:30:40.716Z,14.42
2024-05-09T02:33:12.555Z,14.37
2024-05-09T02:35:42.390Z,14.35
2024-05-09T02:38:10.970Z,14.34
2024-05-09T02:40:39.818Z,14.35
2024-05-09T02:43:10.640Z,14.38
2024-05-09T02:45:40.047Z,14.38
2024-05-09T02:48:12.783Z,14.44
2024-05-09T02:50:41.413Z,14.44
2024-05-09T02:53:10.235Z,14.45
2024-05-09T02:55:38.836Z,14.41
2024-05-09T02:58:10.644Z,14.44
2024-05-09T03:00:41.315Z,14.43
2024-05-09T03:03:15.514Z,14.40
2024-05-09T03:05:47.088Z,14.45
2024-05-09T03:08:15.366Z,14.38
2024-05-09T03:10:43.088Z,14.36
2024-05-09T03:13:15.201Z,14.32
2024-05-09T03:15:44.803Z,14.34
2024-05-09T03:18:13.758Z,14.29
2024-05-09T03:20:44.979Z,14.33
2024-05-09T03:23:13.370Z,14.26
2024-05-09T03:25:42.142Z,14.23
2024-05-09T03:28:12.271Z,14.21
2024-05-09T03:30:42.573Z,14.19
2024-05-09T03:33:13.158Z,14.19
2024-05-09T03:35:44.792Z,14.17
2024-05-09T03:38:12.740Z,14.18
2024-05-09T03:40:49.319Z,14.19
2024-05-09T03:43:18.664Z,14.18
2024-05-09T03:45:47.993Z,14.24
2024-05-09T03:48:17.876Z,14.20
2024-05-09T03:50:48.480Z,14.17
2024-05-09T03:53:16.507Z,14.21
2024-05-09T03:55:44.171Z,14.18
2024-05-09T03:58:14.580Z,14.20
2024-05-09T04:00:45.622Z,14.24
2024-05-09T04:03:15.423Z,14.17
2024-05-09T04:05:44.583Z,14.20
2024-05-09T04:08:12.874Z,14.16
2024-05-09T04:10:41.205Z,14.18
2024-05-09T04:13:10.553Z,14.18
2024-05-09T04:15:44.276Z,14.19
2024-05-09T04:18:17.637Z,14.19
2024-05-09T04:20:45.354Z,14.20
2024-05-09T04:23:14.908Z,14.22
2024-05-09T04:25:44.987Z,14.29
2024-05-09T04:28:14.119Z,14.33
2024-05-09T04:30:42.598Z,14.32
2024-05-09T04:33:13.310Z,14.32
2024-05-09T04:35:45.503Z,14.31
2024-05-09T04:38:14.513Z,14.28
2024-05-09T04:40:43.034Z,14.29
2024-05-09T04:43:21.353Z,14.31
2024-05-09T04:45:48.881Z,14.36
2024-05-09T04:48:17.234Z,14.40
2024-05-09T04:50:47.853Z,14.41
2024-05-09T04:53:17.413Z,14.46
2024-05-09T04:55:45.716Z,14.47
2024-05-09T04:58:13.767Z,14.45
2024-05-09T05:00:41.832Z,14.39
2024-05-09T05:03:15.283Z,14.46
2024-05-09T05:05:45.806Z,14.53
2024-05-09T05:08:19.292Z,14.54
2024-05-09T05:10:49.233Z,14.64
2024-05-09T05:13:20.940Z,14.65
2024-05-09T05:15:51.170Z,14.73
2024-05-09T05:18:19.568Z,14.79
2024-05-09T05:20:47.502Z,14.88
2024-05-09T05:23:20.086Z,14.96
2024-05-09T05:25:49.431Z,15.00
2024-05-09T05:28:17.812Z,15.00
2024-05-09T05:30:47.206Z,15.00
2024-05-09T05:33:19.002Z,15.07
2024-05-09T05:35:47.475Z,15.16
2024-05-09T05:38:15.691Z,15.19
2024-05-09T05:40:43.264Z,15.23
2024-05-09T05:43:17.549Z,15.32
2024-05-09T05:45:45.982Z,15.42
2024-05-09T05:48:17.839Z,15.49
2024-05-09T05:50:45.990Z,15.55
2024-05-09T05:53:14.331Z,15.55
2024-05-09T05:55:42.324Z,15.58
2024-05-09T05:58:11.195Z,15.63
2024-05-09T06:00:40.672Z,15.59
2024-05-09T06:03:10.799Z,15.69
2024-05-09T06:05:40.626Z,15.63
2024-05-09T06:08:09.591Z,15.57
2024-05-09T06:10:39.928Z,15.56
2024-05-09T06:13:13.442Z,15.50
2024-05-09T06:15:42.227Z,15.52
2024-05-09T06:18:12.069Z,15.41
2024-05-09T06:20:42.491Z,15.41
2024-05-09T06:23:11.790Z,15.40
2024-05-09T06:25:39.961Z,15.40
2024-05-09T06:28:08.000Z,15.36
2024-05-09T06:30:42.133Z,15.33
2024-05-09T06:33:14.357Z,15.34
2024-05-09T06:35:44.409Z,15.39
2024-05-09T06:38:12.716Z,15.46
2024-05-09T06:40:42.815Z,15.44
2024-05-09T06:43:16.847Z,15.43
2024-05-09T06:45:48.176Z,15.54
2024-05-09T06:48:19.764Z,15.71
2024-05-09T06:50:48.139Z,15.97
2024-05-09T06:53:17.499Z,16.16
2024-05-09T06:55:45.203Z,16.33
2024-05-09T06:58:14.241Z,16.49
2024-05-09T07:00:42.473Z,16.55
2024-05-09T07:03:12.271Z,16.64
2024-05-09T07:05:41.222Z,16.63
2024-05-09T07:08:09.220Z,16.65
2024-05-09T07:10:37.289Z,16.68
2024-05-09T07:13:09.991Z,16.83
2024-05-09T07:15:41.647Z,16.86
2024-05-09T07:18:15.888Z,16.94
2024-05-09T07:20:44.464Z,17.10
2024-05-09T07:23:13.343Z,17.23
2024-05-09T07:25:41.911Z,17.37
2024-05-09T07:28:17.541Z,17.47
2024-05-09T07:30:45.573Z,17.62
2024-05-09T07:33:22.780Z,17.76
2024-05-09T07:35:51.865Z,17.73
2024-05-09T07:38:20.074Z,17.98
2024-05-09T07:40:47.787Z,18.12
2024-05-09T07:43:16.344Z,18.24
2024-05-09T07:45:51.853Z,18.39
2024-05-09T07:52:38.406Z,18.42
2024-05-09T07:53:50.012Z,18.43
2024-05-09T07:56:22.557Z,18.57
2024-05-09T07:58:56.359Z,18.98
2024-05-09T08:01:28.805Z,19.15
2024-05-09T08:03:57.219Z,19.21
2024-05-09T08:06:25.601Z,19.29
2024-05-09T08:08:53.704Z,19.42
2024-05-09T08:11:21.699Z,19.54
2024-05-09T08:13:49.605Z,19.70
2024-05-09T08:16:17.246Z,19.72
2024-05-09T08:18:45.303Z,19.57
2024-05-09T08:21:12.897Z,19.59
2024-05-09T08:23:40.750Z,19.75
2024-05-09T08:26:08.204Z,19.75
2024-05-09T08:28:36.112Z,19.82
2024-05-09T08:31:06.748Z,19.73
2024-05-09T08:33:38.686Z,19.84
2024-05-09T08:36:09.504Z,19.95
2024-05-09T08:38:37.436Z,20.08
2024-05-09T08:41:05.161Z,19.95
2024-05-09T08:43:33.096Z,20.14
2024-05-09T08:46:00.755Z,20.17
2024-05-09T08:48:29.786Z,20.22
2024-05-09T08:50:59.488Z,20.43
2024-05-09T08:53:27.623Z,20.67
2024-05-09T08:55:57.621Z,20.80
2024-05-09T08:58:26.756Z,20.84
2024-05-09T09:00:54.394Z,20.87
2024-05-09T09:03:28.182Z,21.18
2024-05-09T09:06:11.260Z,21.47
2024-05-09T09:08:42.166Z,21.51
2024-05-09T09:11:10.825Z,21.63
2024-05-09T09:13:39.088Z,21.68
2024-05-09T09:16:07.011Z,21.81
2024-05-09T09:18:35.645Z,21.84
2024-05-09T09:21:03.508Z,21.97
2024-05-09T09:23:31.443Z,22.06
2024-05-09T09:26:00.145Z,22.14
2024-05-09T09:28:28.334Z,22.12
2024-05-09T09:31:02.117Z,21.50
2024-05-09T09:33:31.722Z,21.83
2024-05-09T09:35:59.485Z,21.87
2024-05-09T09:38:30.651Z,22.02
2024-05-09T09:40:59.006Z,22.27
2024-05-09T09:43:27.534Z,22.36
2024-05-09T09:45:59.904Z,22.48
2024-05-09T09:48:29.526Z,22.57
2024-05-09T09:50:57.779Z,22.63
2024-05-09T09:53:28.585Z,22.64
2024-05-09T09:55:56.580Z,22.15
2024-05-09T09:58:25.944Z,22.36
2024-05-09T10:00:53.972Z,22.47
2024-05-09T10:03:22.157Z,22.77
2024-05-09T10:05:50.419Z,23.07
2024-05-09T10:08:24.638Z,23.12
2024-05-09T10:10:52.472Z,23.30
2024-05-09T10:13:20.801Z,22.88
2024-05-09T10:15:53.387Z,22.93
2024-05-09T10:18:28.044Z,22.91
2024-05-09T10:20:59.675Z,23.02
2024-05-09T10:23:32.415Z,23.32
2024-05-09T10:26:07.076Z,23.55
2024-05-09T10:28:40.456Z,23.57
2024-05-09T10:31:10.464Z,23.72
2024-05-09T10:33:50.862Z,23.32
2024-05-09T10:36:27.058Z,23.47
2024-05-09T10:38:55.917Z,23.83
2024-05-09T10:41:24.346Z,23.86
2024-05-09T10:43:52.626Z,23.93
2024-05-09T10:46:20.445Z,24.09
2024-05-09T10:48:48.933Z,23.97
2024-05-09T10:51:19.796Z,24.04
2024-05-09T10:53:48.762Z,24.10
2024-05-09T10:56:17.405Z,24.20
2024-05-09T10:58:45.566Z,24.49
2024-05-09T11:01:13.876Z,24.45
2024-05-09T11:03:43.188Z,24.59
2024-05-09T11:06:11.642Z,24.66
2024-05-09T11:08:39.929Z,24.74
2024-05-09T11:11:08.807Z,24.77
2024-05-09T11:13:38.953Z,24.81
2024-05-09T11:16:20.855Z,24.96
2024-05-09T11:18:56.578Z,24.97
2024-05-09T11:21:24.849Z,25.11
2024-05-09T11:23:53.252Z,25.08
2024-05-09T11:26:22.321Z,24.82
2024-05-09T11:28:50.962Z,25.22
2024-05-09T11:31:18.941Z,25.41
2024-05-09T11:33:47.310Z,25.52
2024-05-09T11:36:15.918Z,26.18
2024-05-09T11:38:43.932Z,25.68
2024-05-09T11:41:18.736Z,25.90
2024-05-09T11:43:46.714Z,26.11
2024-05-09T11:46:14.593Z,26.24
2024-05-09T11:48:42.856Z,26.54
2024-05-09T11:51:10.439Z,25.86
2024-05-09T11:53:41.150Z,25.91
2024-05-09T11:56:08.688Z,24.92
2024-05-09T11:58:39.443Z,24.97
2024-05-09T12:01:07.527Z,25.35
2024-05-09T12:03:37.903Z,25.68
2024-05-09T12:06:06.144Z,25.77
2024-05-09T12:08:34.149Z,26.33
2024-05-09T12:11:01.813Z,26.31
2024-05-09T12:13:29.840Z,26.74
2024-05-09T12:15:57.358Z,26.75
2024-05-09T12:18:25.290Z,26.54
2024-05-09T12:20:52.886Z,26.44
2024-05-09T12:23:20.770Z,26.68
2024-05-09T12:25:48.419Z,26.63
2024-05-09T12:28:16.807Z,27.03
2024-05-09T12:30:44.966Z,27.11
2024-05-09T12:33:14.240Z,27.72
2024-05-09T12:35:44.342Z,27.64
2024-05-09T12:38:15.574Z,27.45
2024-05-09T12:40:43.656Z,27.31
2024-05-09T12:43:12.070Z,27.17
2024-05-09T12:45:40.849Z,27.61
2024-05-09T12:48:12.431Z,27.01
2024-05-09T12:50:40.874Z,27.66
2024-05-09T12:53:09.033Z,27.70
2024-05-09T12:55:44.257Z,27.91
2024-05-09T12:58:24.428Z,27.83
2024-05-09T13:00:52.998Z,28.36
2024-05-09T13:03:22.248Z,28.33
2024-05-09T13:05:51.271Z,28.75
2024-05-09T13:08:20.808Z,29.03
2024-05-09T13:10:48.936Z,28.96
2024-05-09T13:13:17.239Z,28.04
2024-05-09T13:15:44.897Z,28.51
2024-05-09T13:18:15.525Z,28.64
2024-05-09T13:20:46.036Z,28.35
2024-05-09T13:23:13.975Z,28.93
2024-05-09T13:25:41.484Z,27.92
2024-05-09T13:28:09.412Z,27.97
2024-05-09T13:30:40.996Z,28.01
2024-05-09T13:33:12.014Z,28.08
2024-05-09T13:35:47.127Z,27.75
2024-05-09T13:38:22.408Z,28.21
2024-05-09T13:40:50.675Z,28.83
2024-05-09T13:43:19.286Z,28.71
2024-05-09T13:45:47.340Z,28.66
2024-05-09T13:48:15.600Z,28.61
2024-05-09T13:50:43.187Z,28.71
2024-05-09T13:53:11.807Z,28.28
2024-05-09T13:55:39.735Z,28.44
2024-05-09T13:58:11.178Z,29.05
2024-05-09T14:00:47.271Z,29.43
2024-05-09T14:03:20.361Z,29.26
2024-05-09T14:05:51.198Z,29.21
2024-05-09T14:08:22.260Z,29.17
2024-05-09T14:10:53.760Z,29.12
2024-05-09T14:13:21.951Z,28.47
2024-05-09T14:15:49.743Z,28.89
2024-05-09T14:18:18.150Z,29.23
2024-05-09T14:20:45.686Z,29.12
2024-05-09T14:23:13.542Z,28.62
2024-05-09T14:25:42.884Z,28.67
2024-05-09T14:28:13.329Z,29.52
2024-05-09T14:30:42.412Z,29.47
2024-05-09T14:33:11.739Z,29.71
2024-05-09T14:35:39.573Z,29.85
2024-05-09T14:38:09.010Z,30.01
2024-05-09T14:40:42.420Z,30.71
2024-05-09T14:43:13.839Z,31.56
2024-05-09T14:45:45.809Z,32.25
2024-05-09T14:48:15.965Z,31.60
2024-05-09T14:50:43.862Z,32.01
2024-05-09T14:53:13.823Z,32.51
2024-05-09T14:55:43.408Z,33.45
2024-05-09T14:58:13.239Z,34.49
2024-05-09T15:00:46.564Z,35.16
2024-05-09T15:03:19.113Z,35.60
2024-05-09T15:05:48.319Z,36.22
2024-05-09T15:08:18.376Z,36.40
2024-05-09T15:10:46.571Z,36.18
2024-05-09T15:13:16.558Z,36.56
2024-05-09T15:15:45.171Z,37.03
2024-05-09T15:18:14.364Z,37.58
2024-05-09T15:20:43.830Z,37.54
2024-05-09T15:23:12.071Z,37.14
2024-05-09T15:25:39.623Z,36.72
2024-05-09T15:28:08.226Z,37.90
2024-05-09T15:30:36.727Z,37.81
2024-05-09T15:33:07.199Z,37.21
2024-05-09T15:35:36.224Z,36.63
2024-05-09T15:38:04.920Z,35.20
2024-05-09T15:40:39.100Z,34.98
2024-05-09T15:43:10.584Z,32.39
2024-05-09T15:45:41.374Z,30.10
2024-05-09T15:48:11.526Z,28.61
2024-05-09T15:50:41.649Z,27.52
2024-05-09T15:53:13.261Z,26.52
2024-05-09T15:55:42.554Z,25.58
2024-05-09T15:58:11.221Z,24.94
2024-05-09T16:00:42.175Z,24.55
2024-05-09T16:03:13.107Z,24.22
2024-05-09T16:05:43.440Z,23.89
2024-05-09T16:08:12.547Z,23.62
2024-05-09T16:10:46.167Z,23.43
2024-05-09T16:13:16.499Z,23.25
2024-05-09T16:15:44.717Z,23.21
2024-05-09T16:18:13.180Z,23.14
2024-05-09T16:20:42.465Z,23.09
2024-05-09T16:23:15.331Z,23.14
2024-05-09T16:25:51.294Z,23.10
2024-05-09T16:28:20.521Z,23.26
2024-05-09T16:30:49.386Z,23.28
2024-05-09T16:33:25.914Z,23.44
2024-05-09T16:35:56.734Z,24.00
2024-05-09T16:38:25.571Z,25.30
2024-05-09T16:40:53.488Z,27.37
2024-05-09T16:43:21.666Z,29.58
2024-05-09T16:45:49.318Z,31.40
2024-05-09T16:48:17.451Z,32.21
2024-05-09T16:50:44.996Z,33.14
2024-05-09T16:53:13.731Z,33.32
2024-05-09T16:55:41.584Z,33.02
2024-05-09T16:58:12.071Z,33.39
2024-05-09T17:00:43.412Z,33.58
2024-05-09T17:03:15.362Z,33.48
2024-05-09T17:05:46.042Z,33.01
2024-05-09T17:08:16.871Z,33.14
2024-05-09T17:10:50.921Z,32.93
2024-05-09T17:13:19.797Z,30.46
2024-05-09T17:15:48.095Z,28.65
2024-05-09T17:18:16.842Z,27.27
2024-05-09T17:20:44.380Z,26.24
2024-05-09T17:23:15.293Z,25.09
2024-05-09T17:25:43.351Z,24.40
2024-05-09T17:28:12.047Z,23.90
2024-05-09T17:30:41.986Z,23.38
2024-05-09T17:33:12.287Z,22.94
2024-05-09T17:35:40.675Z,22.78
2024-05-09T17:38:09.084Z,22.43
2024-05-09T17:40:38.340Z,22.19
2024-05-09T17:43:09.719Z,21.98
2024-05-09T17:45:40.354Z,21.73
2024-05-09T17:48:10.503Z,21.46
2024-05-09T17:50:39.197Z,21.18
2024-05-09T17:53:08.143Z,21.06
2024-05-09T17:55:36.155Z,20.90
2024-05-09T17:58:05.527Z,20.78
2024-05-09T18:00:39.163Z,20.64
2024-05-09T18:03:14.169Z,20.45
2024-05-09T18:05:45.244Z,20.26
2024-05-09T18:08:13.911Z,20.10
2024-05-09T18:10:41.969Z,19.98
2024-05-09T18:13:10.953Z,19.87
2024-05-09T18:15:39.278Z,19.63
2024-05-09T18:18:08.143Z,19.51
2024-05-09T18:20:42.283Z,19.36
2024-05-09T18:23:18.679Z,19.24
2024-05-09T18:25:48.121Z,19.17
2024-05-09T18:28:17.333Z,19.11
2024-05-09T18:30:45.732Z,18.98
2024-05-09T18:33:14.314Z,18.81
2024-05-09T18:35:44.008Z,18.76
2024-05-09T18:38:12.152Z,18.68
2024-05-09T18:40:41.710Z,18.51
2024-05-09T18:43:11.540Z,18.43
2024-05-09T18:45:39.478Z,18.21
2024-05-09T18:48:12.313Z,18.07
2024-05-09T18:50:41.341Z,17.92
2024-05-09T18:53:12.388Z,17.80
2024-05-09T18:55:43.752Z,17.64
2024-05-09T18:58:11.913Z,17.52
2024-05-09T19:00:42.532Z,17.44
2024-05-09T19:03:14.247Z,17.37
2024-05-09T19:05:44.380Z,17.33
2024-05-09T19:08:14.780Z,17.36
2024-05-09T19:10:42.699Z,17.24
2024-05-09T19:13:13.079Z,17.24
2024-05-09T19:15:43.115Z,17.17
2024-05-09T19:18:15.605Z,17.13
2024-05-09T19:20:44.427Z,17.06
2024-05-09T19:23:12.927Z,16.98
2024-05-09T19:25:40.548Z,16.89
2024-05-09T19:28:08.738Z,16.82
2024-05-09T19:30:41.325Z,16.80
2024-05-09T19:33:13.257Z,16.73
2024-05-09T19:35:41.976Z,16.70
2024-05-09T19:38:10.170Z,16.70
2024-05-09T19:40:37.959Z,16.53
2024-05-09T19:43:06.979Z,16.50
2024-05-09T19:45:36.201Z,16.41
2024-05-09T19:48:06.028Z,16.41
2024-05-09T19:50:41.670Z,16.30
2024-05-09T19:53:15.528Z,16.27
2024-05-09T19:55:44.038Z,16.17
2024-05-09T19:58:12.941Z,16.14
2024-05-09T20:00:43.035Z,16.31
2024-05-09T20:03:14.092Z,16.35
2024-05-09T20:05:45.351Z,16.34
2024-05-09T20:08:14.078Z,16.34
2024-05-09T20:10:41.627Z,16.33
2024-05-09T20:13:11.387Z,16.29
2024-05-09T20:15:40.133Z,16.29
2024-05-09T20:18:08.399Z,16.30
2024-05-09T20:20:40.083Z,16.34
2024-05-09T20:23:14.347Z,16.25
2024-05-09T20:25:42.839Z,16.17
2024-05-09T20:28:13.918Z,16.13
2024-05-09T20:30:41.543Z,16.07
2024-05-09T20:33:10.220Z,16.03
2024-05-09T20:35:38.255Z,15.93
2024-05-09T20:38:06.805Z,15.88
2024-05-09T20:40:38.191Z,15.95
2024-05-09T20:43:10.547Z,15.80
2024-05-09T20:45:39.542Z,15.78
2024-05-09T20:48:08.451Z,15.72
2024-05-09T20:50:40.731Z,15.62
2024-05-09T20:53:12.361Z,15.61
2024-05-09T20:55:41.510Z,15.57
2024-05-09T20:58:09.936Z,15.49
2024-05-09T21:00:42.067Z,15.40
2024-05-09T21:03:13.469Z,15.32
2024-05-09T21:05:42.688Z,15.25
2024-05-09T21:08:10.447Z,15.15
2024-05-09T21:10:38.627Z,15.21
2024-05-09T21:13:07.152Z,15.13
2024-05-09T21:15:36.130Z,15.05
2024-05-09T21:18:04.737Z,15.03
2024-05-09T21:20:34.873Z,15.08
2024-05-09T21:23:03.245Z,14.93
2024-05-09T21:25:32.330Z,14.91
2024-05-09T21:28:00.758Z,14.88
2024-05-09T21:30:38.487Z,14.97
2024-05-09T21:33:11.248Z,14.97
2024-05-09T21:35:41.408Z,14.95
2024-05-09T21:38:09.100Z,14.92
2024-05-09T21:40:38.155Z,14.88
2024-05-09T21:43:07.910Z,14.77
2024-05-09T21:45:36.653Z,14.69
2024-05-09T21:48:08.424Z,14.62
2024-05-09T21:50:40.691Z,14.56
2024-05-09T21:53:11.585Z,14.47
2024-05-09T21:55:40.033Z,14.48
2024-05-09T21:58:07.671Z,14.45
2024-05-09T22:00:38.384Z,14.42
2024-05-09T22:03:08.569Z,14.39
2024-05-09T22:05:37.809Z,14.30
2024-05-09T22:08:05.819Z,14.28
2024-05-09T22:10:36.185Z,14.26
2024-05-09T22:13:06.048Z,14.19
2024-05-09T22:15:40.346Z,14.14
2024-05-09T22:18:10.388Z,14.11
2024-05-09T22:20:46.766Z,14.06
2024-05-09T22:23:15.862Z,13.95
2024-05-09T22:25:44.220Z,13.89
2024-05-09T22:28:15.275Z,13.87
2024-05-09T22:30:45.984Z,13.84
2024-05-09T22:33:15.058Z,13.78
2024-05-09T22:35:43.088Z,13.66
2024-05-09T22:38:10.619Z,13.65
2024-05-09T22:40:46.686Z,13.61
2024-05-09T22:43:22.337Z,13.60
2024-05-09T22:45:52.477Z,13.56
2024-05-09T22:48:20.692Z,13.68
2024-05-09T22:50:48.753Z,13.59
2024-05-09T22:53:16.375Z,13.49
2024-05-09T22:55:44.356Z,13.48
2024-05-09T22:58:11.843Z,13.46
2024-05-09T23:00:40.282Z,13.37
2024-05-09T23:03:07.952Z,13.37
2024-05-09T23:05:36.081Z,13.36
2024-05-09T23:08:03.690Z,13.31
2024-05-09T23:10:36.590Z,13.32
2024-05-09T23:13:07.701Z,13.24
2024-05-09T23:15:38.724Z,13.21
2024-05-09T23:18:06.941Z,13.19
2024-05-09T23:20:38.608Z,13.28
2024-05-09T23:23:11.748Z,13.14
2024-05-09T23:25:44.208Z,13.11
2024-05-09T23:28:12.284Z,13.07
2024-05-09T23:30:41.480Z,13.11
2024-05-09T23:33:12.433Z,13.04
2024-05-09T23:35:42.497Z,13.05
2024-05-09T23:38:10.043Z,13.10
2024-05-09T23:40:42.334Z,12.99
2024-05-09T23:43:12.120Z,12.98
2024-05-09T23:45:41.628Z,12.98
2024-05-09T23:48:10.060Z,12.96
2024-05-09T23:50:39.739Z,12.93
2024-05-09T23:53:09.438Z,12.96
2024-05-09T23:55:38.367Z,12.95
2024-05-09T23:58:06.973Z,12.87
